Time;durP1;ratioP1;P1;durP2;ratioP2;P2;SDS_P1;SDS_P2;PMS_P1;PMS_P2;Temp;Humidity;BMP_temperature;BMP_pressure;BME280_temperature;BME280_humidity;BME280_pressure;Samples;Min_cycle;Max_cycle;Signal;HPM_P1;HPM_P2
2021/07/29 00:01:19;;;;;;;;;;;;;;;;;;5060648;28;19915;-87
2021/07/29 00:03:45;;;;;;;;;;;;;;;;;;5078223;28;19908;-88
2021/07/29 00:06:11;;;;;;;;;;;;;;;;;;5054883;28;19927;-88
2021/07/29 00:08:37;;;;;;;;;;;;;;;;;;5058766;28;19927;-88
2021/07/29 00:11:03;;;;;;;;;;;;;;;;;;5055336;28;20322;-87
2021/07/29 00:13:29;;;;;;;;;;;;;;;;;;5057230;28;20019;-88
2021/07/29 00:15:55;;;;;;;;;;;;;;;;;;5058874;28;19909;-88
2021/07/29 00:21:05;;;;;;;;;;;;;;;;;;5061378;28;19916;-87
2021/07/29 00:23:31;;;;;;;;;;;;;;;;;;5057650;28;19913;-88
2021/07/29 00:25:57;;;;;;;;;;;;;;;;;;5057709;28;19920;-88
2021/07/29 00:28:23;;;;;;;;;;;;;;;;;;5061405;28;19920;-88
2021/07/29 00:30:49;;;;;;;;;;;;;;;;;;5058933;28;20023;-88
2021/07/29 00:33:15;;;;;;;;;;;;;;;;;;5060964;28;20009;-88
2021/07/29 00:35:41;;;;;;;;;;;;;;;;;;5057123;28;19948;-88
2021/07/29 00:38:07;;;;;;;;;;;;;;;;;;5058150;28;19959;-86
2021/07/29 00:40:33;;;;;;;;;;;;;;;;;;5054003;28;20131;-89
2021/07/29 00:42:59;;;;;;;;;;;;;;;;;;5076621;28;19935;-88
2021/07/29 00:45:25;;;;;;;;;;;;;;;;;;5055344;28;19927;-88
2021/07/29 00:47:51;;;;;;;;;;;;;;;;;;5074306;28;20358;-88
2021/07/29 00:50:17;;;;;;;;;;;;;;;;;;5059228;28;19931;-88
2021/07/29 00:52:43;;;;;;;;;;;;;;;;;;5060079;28;19913;-88
2021/07/29 00:55:09;;;;;;;;;;;;;;;;;;5056788;28;19908;-88
2021/07/29 00:57:34;;;;;;;;;;;;;;;;;;5059292;28;19952;-88
2021/07/29 01:00:00;;;;;;;;;;;;;;;;;;5060314;28;19919;-88
2021/07/29 01:02:26;;;;;;;;;;;;;;;;;;5056199;28;20262;-88
2021/07/29 01:04:52;;;;;;;;;;;;;;;;;;5053844;28;19916;-89
2021/07/29 01:07:18;;;;;;;;;;;;;;;;;;5060107;28;19931;-88
2021/07/29 01:09:44;;;;;;;;;;;;;;;;;;5055640;28;19952;-88
2021/07/29 01:12:10;;;;;;;;;;;;;;;;;;5052274;28;19980;-88
2021/07/29 01:14:36;;;;;;;;;;;;;;;;;;5060032;28;19924;-88
2021/07/29 01:17:02;;;;;;;;;;;;;;;;;;5055777;28;19980;-88
2021/07/29 01:19:27;;;;;;;;;;;;;;;;;;5063109;28;19915;-89
2021/07/29 01:21:53;;;;;;;;;;;;;;;;;;5074090;28;19935;-88
2021/07/29 01:24:19;;;;;;;;;;;;;;;;;;5069666;28;19967;-88
2021/07/29 01:26:45;;;;;;;;;;;;;;;;;;5060102;28;19913;-88
2021/07/29 01:29:11;;;;;;;;;;;;;;;;;;5052825;28;19965;-88
2021/07/29 01:31:37;;;;;;;;;;;;;;;;;;5059099;28;19920;-88
2021/07/29 01:34:03;;;;;;;;;;;;;;;;;;5060479;28;20490;-88
2021/07/29 01:36:29;;;;;;;;;;;;;;;;;;5052038;28;19921;-88
2021/07/29 01:38:55;;;;;;;;;;;;;;;;;;5058876;28;19913;-88
2021/07/29 01:41:20;;;;;;;;;;;;;;;;;;5054999;28;19920;-88
2021/07/29 01:43:46;;;;;;;;;;;;;;;;;;5057792;28;19917;-87
2021/07/29 01:46:12;;;;;;;;;;;;;;;;;;5058999;28;19923;-88
2021/07/29 01:48:39;;;;;;;;;;;;;;;;;;5060750;28;19913;-88
2021/07/29 01:51:04;;;;;;;;;;;;;;;;;;5061365;28;19917;-88
2021/07/29 01:53:30;;;;;;;;;;;;;;;;;;5062971;28;19919;-88
2021/07/29 01:55:56;;;;;;;;;;;;;;;;;;5053991;28;19913;-88
2021/07/29 01:58:22;;;;;;;;;;;;;;;;;;5056910;28;19932;-88
2021/07/29 02:00:48;;;;;;;;;;;;;;;;;;5060731;28;20027;-88
2021/07/29 02:03:14;;;;;;;;;;;;;;;;;;5058919;28;19917;-88
2021/07/29 02:05:40;;;;;;;;;;;;;;;;;;5058538;28;20276;-88
2021/07/29 02:08:06;;;;;;;;;;;;;;;;;;5051106;28;19913;-88
2021/07/29 02:10:31;;;;;;;;;;;;;;;;;;5071815;28;20356;-88
2021/07/29 02:12:57;;;;;;;;;;;;;;;;;;5069456;28;20289;-88
2021/07/29 02:15:23;;;;;;;;;;;;;;;;;;5055499;28;20027;-88
2021/07/29 02:17:49;;;;;;;;;;;;;;;;;;5063590;28;20000;-88
2021/07/29 02:20:15;;;;;;;;;;;;;;;;;;5067838;28;20015;-87
2021/07/29 02:22:41;;;;;;;;;;;;;;;;;;5062763;28;19913;-88
2021/07/29 02:25:07;;;;;;;;;;;;;;;;;;5069579;28;19924;-88
2021/07/29 02:27:33;;;;;;;;;;;;;;;;;;5068850;28;19948;-88
2021/07/29 02:29:58;;;;;;;;;;;;;;;;;;5067491;28;19909;-88
2021/07/29 02:32:24;;;;;;;;;;;;;;;;;;5055497;28;19966;-88
2021/07/29 02:34:52;;;;;;;;;;;;;;;;;;5053217;28;20277;-88
2021/07/29 02:37:18;;;;;;;;;;;;;;;;;;5054779;28;19909;-88
2021/07/29 02:39:44;;;;;;;;;;;;;;;;;;5058040;28;19920;-88
2021/07/29 02:42:09;;;;;;;;;;;;;;;;;;5058223;28;19963;-88
2021/07/29 02:44:35;;;;;;;;;;;;;;;;;;5057182;28;19988;-88
2021/07/29 02:47:01;;;;;;;;;;;;;;;;;;5056548;28;19913;-87
2021/07/29 02:49:27;;;;;;;;;;;;;;;;;;5062637;28;19916;-88
2021/07/29 02:51:53;;;;;;;;;;;;;;;;;;5059692;28;19916;-88
2021/07/29 02:54:19;;;;;;;;;;;;;;;;;;5060912;28;19913;-88
2021/07/29 02:56:45;;;;;;;;;;;;;;;;;;5060499;28;19917;-88
2021/07/29 02:59:11;;;;;;;;;;;;;;;;;;5053362;28;20015;-88
2021/07/29 03:01:36;;;;;;;;;;;;;;;;;;5062586;28;19916;-88
2021/07/29 03:04:02;;;;;;;;;;;;;;;;;;5075660;28;19985;-88
2021/07/29 03:06:28;;;;;;;;;;;;;;;;;;5063121;28;19987;-88
2021/07/29 03:08:54;;;;;;;;;;;;;;;;;;5053644;28;20350;-88
2021/07/29 03:11:20;;;;;;;;;;;;;;;;;;5059740;28;19921;-88
2021/07/29 03:13:46;;;;;;;;;;;;;;;;;;5063217;28;19936;-88
2021/07/29 03:16:12;;;;;;;;;;;;;;;;;;5077301;28;19916;-88
2021/07/29 03:18:38;;;;;;;;;;;;;;;;;;5051263;28;20353;-88
2021/07/29 03:21:03;;;;;;;;;;;;;;;;;;5057657;28;19921;-88
2021/07/29 03:23:29;;;;;;;;;;;;;;;;;;5058512;28;20004;-88
2021/07/29 03:25:55;;;;;;;;;;;;;;;;;;5059906;28;19947;-88
2021/07/29 03:28:21;;;;;;;;;;;;;;;;;;5062590;28;19909;-88
2021/07/29 03:30:47;;;;;;;;;;;;;;;;;;5061373;28;19909;-88
2021/07/29 03:33:13;;;;;;;;;;;;;;;;;;5059496;28;19912;-89
2021/07/29 03:35:39;;;;;;;;;;;;;;;;;;5061993;28;20048;-88
2021/07/29 03:38:05;;;;;;;;;;;;;;;;;;5061312;28;19913;-88
2021/07/29 03:40:31;;;;;;;;;;;;;;;;;;5059348;28;19909;-87
2021/07/29 03:42:59;;;;;;;;;;;;;;;;;;5062637;28;19909;-87
2021/07/29 03:45:25;;;;;;;;;;;;;;;;;;5061080;28;19917;-87
2021/07/29 03:47:51;;;;;;;;;;;;;;;;;;5057240;28;19913;-87
2021/07/29 03:50:17;;;;;;;;;;;;;;;;;;5062616;28;19913;-85
2021/07/29 03:52:43;;;;;;;;;;;;;;;;;;5057930;28;20327;-87
2021/07/29 03:55:09;;;;;;;;;;;;;;;;;;5060420;28;19909;-87
2021/07/29 03:57:34;;;;;;;;;;;;;;;;;;5060994;28;19921;-85
2021/07/29 04:00:02;;;;;;;;;;;;;;;;;;5053568;28;20365;-87
2021/07/29 04:02:28;;;;;;;;;;;;;;;;;;5069466;28;19913;-88
2021/07/29 04:04:54;;;;;;;;;;;;;;;;;;5061063;28;19921;-87
2021/07/29 04:07:19;;;;;;;;;;;;;;;;;;5055876;28;20376;-87
2021/07/29 04:09:45;;;;;;;;;;;;;;;;;;5053820;28;19909;-87
2021/07/29 04:12:11;;;;;;;;;;;;;;;;;;5059511;28;19909;-87
2021/07/29 04:14:37;;;;;;;;;;;;;;;;;;5052555;28;19913;-87
2021/07/29 04:17:03;;;;;;;;;;;;;;;;;;5070575;28;19919;-90
2021/07/29 04:19:29;;;;;;;;;;;;;;;;;;5060323;28;19932;-89
2021/07/29 04:21:55;;;;;;;;;;;;;;;;;;5058391;28;19931;-89
2021/07/29 04:24:21;;;;;;;;;;;;;;;;;;5059762;28;19928;-89
2021/07/29 04:26:47;;;;;;;;;;;;;;;;;;5061195;28;19959;-89
2021/07/29 04:29:12;;;;;;;;;;;;;;;;;;5059460;28;19913;-89
2021/07/29 04:31:39;;;;;;;;;;;;;;;;;;5062670;28;19921;-89
2021/07/29 04:34:05;;;;;;;;;;;;;;;;;;5061525;28;19955;-89
2021/07/29 04:36:30;;;;;;;;;;;;;;;;;;5069456;28;19908;-89
2021/07/29 04:38:56;;;;;;;;;;;;;;;;;;5059867;28;19909;-88
2021/07/29 04:41:22;;;;;;;;;;;;;;;;;;5070534;28;19921;-88
2021/07/29 04:43:48;;;;;;;;;;;;;;;;;;5059595;28;19936;-89
2021/07/29 04:46:14;;;;;;;;;;;;;;;;;;5056147;28;19928;-89
2021/07/29 04:48:40;;;;;;;;;;;;;;;;;;5061497;28;19912;-88
2021/07/29 04:51:06;;;;;;;;;;;;;;;;;;5062267;28;19913;-89
2021/07/29 04:53:32;;;;;;;;;;;;;;;;;;5062262;28;19916;-89
2021/07/29 04:55:57;;;;;;;;;;;;;;;;;;5059148;28;19921;-89
2021/07/29 04:58:23;;;;;;;;;;;;;;;;;;5062473;28;19920;-89
2021/07/29 05:00:49;;;;;;;;;;;;;;;;;;5061705;28;19908;-90
2021/07/29 05:03:15;;;;;;;;;;;;;;;;;;5059342;28;20280;-89
2021/07/29 05:05:41;;;;;;;;;;;;;;;;;;5057700;28;19966;-89
2021/07/29 05:08:07;;;;;;;;;;;;;;;;;;5061979;28;19913;-89
2021/07/29 05:10:33;;;;;;;;;;;;;;;;;;5060127;28;20269;-89
2021/07/29 05:12:59;;;;;;;;;;;;;;;;;;5062042;28;20354;-89
2021/07/29 05:15:25;;;;;;;;;;;;;;;;;;5059526;28;19920;-89
2021/07/29 05:17:54;;;;;;;;;;;;;;;;;;5061561;28;19966;-89
2021/07/29 05:20:20;;;;;;;;;;;;;;;;;;5060698;28;19938;-88
2021/07/29 05:22:46;;;;;;;;;;;;;;;;;;5058901;28;19959;-89
2021/07/29 05:25:12;;;;;;;;;;;;;;;;;;5060743;28;19921;-88
2021/07/29 05:27:38;;;;;;;;;;;;;;;;;;5061725;28;19909;-88
2021/07/29 05:30:04;;;;;;;;;;;;;;;;;;5061340;28;19917;-88
2021/07/29 05:32:30;;;;;;;;;;;;;;;;;;5061815;28;19958;-88
2021/07/29 05:34:56;;;;;;;;;;;;;;;;;;5061795;28;19985;-88
2021/07/29 05:37:22;;;;;;;;;;;;;;;;;;5054971;28;20046;-89
2021/07/29 05:39:48;;;;;;;;;;;;;;;;;;5063862;28;19916;-89
2021/07/29 05:42:20;;;;;;;;;;;;;;;;;;5059862;28;19935;-90
2021/07/29 05:44:45;;;;;;;;;;;;;;;;;;5052674;28;19921;-88
2021/07/29 05:47:11;;;;;;;;;;;;;;;;;;5057156;28;20487;-88
2021/07/29 05:49:37;;;;;;;;;;;;;;;;;;5061637;28;19909;-88
2021/07/29 05:52:03;;;;;;;;;;;;;;;;;;5059925;28;19943;-88
2021/07/29 05:54:29;;;;;;;;;;;;;;;;;;5069729;28;19972;-88
2021/07/29 05:56:55;;;;;;;;;;;;;;;;;;5077293;28;20011;-88
2021/07/29 05:59:21;;;;;;;;;;;;;;;;;;5055998;28;19955;-88
2021/07/29 06:01:47;;;;;;;;;;;;;;;;;;5060416;28;19948;-88
2021/07/29 06:04:13;;;;;;;;;;;;;;;;;;5067075;28;20365;-88
2021/07/29 06:06:38;;;;;;;;;;;;;;;;;;5058588;28;19921;-88
2021/07/29 06:09:04;;;;;;;;;;;;;;;;;;5053047;28;19917;-88
2021/07/29 06:11:30;;;;;;;;;;;;;;;;;;5048384;28;19922;-88
2021/07/29 06:13:56;;;;;;;;;;;;;;;;;;5068252;28;19916;-88
2021/07/29 06:16:22;;;;;;;;;;;;;;;;;;5057863;28;20007;-87
2021/07/29 06:19:31;;;;;;;;;;;;;;;;;;5062770;28;19916;-87
2021/07/29 06:21:37;;;;;;;;;;;;;;;;;;5056026;28;19919;-88
2021/07/29 06:24:03;;;;;;;;;;;;;;;;;;5057136;28;19917;-88
2021/07/29 06:26:29;;;;;;;;;;;;;;;;;;5066408;28;19921;-88
2021/07/29 06:28:55;;;;;;;;;;;;;;;;;;5055617;28;20369;-88
2021/07/29 06:31:21;;;;;;;;;;;;;;;;;;5072092;28;19909;-88
2021/07/29 06:33:47;;;;;;;;;;;;;;;;;;5068924;28;19909;-87
2021/07/29 06:36:12;;;;;;;;;;;;;;;;;;5065570;28;20007;-89
2021/07/29 06:38:39;;;;;;;;;;;;;;;;;;5062135;28;19920;-87
2021/07/29 06:41:05;;;;;;;;;;;;;;;;;;5064573;28;19915;-86
2021/07/29 06:43:31;;;;;;;;;;;;;;;;;;5059209;28;19972;-86
2021/07/29 06:45:56;;;;;;;;;;;;;;;;;;5064549;28;19959;-87
2021/07/29 06:48:22;;;;;;;;;;;;;;;;;;5058251;28;19959;-89
2021/07/29 06:50:48;;;;;;;;;;;;;;;;;;5061320;28;20391;-87
2021/07/29 06:53:14;;;;;;;;;;;;;;;;;;5063413;28;19920;-88
2021/07/29 06:55:40;;;;;;;;;;;;;;;;;;5064372;28;19914;-88
2021/07/29 06:58:06;;;;;;;;;;;;;;;;;;5056351;28;19947;-87
2021/07/29 07:00:32;;;;;;;;;;;;;;;;;;5063951;28;20292;-86
2021/07/29 07:02:58;;;;;;;;;;;;;;;;;;5059991;28;20280;-87
2021/07/29 07:05:23;;;;;;;;;;;;;;;;;;5062162;28;19921;-86
2021/07/29 07:07:49;;;;;;;;;;;;;;;;;;5060174;28;19912;-86
2021/07/29 07:10:15;;;;;;;;;;;;;;;;;;5057838;28;19916;-84
2021/07/29 07:12:41;;;;;;;;;;;;;;;;;;5062887;28;19917;-86
2021/07/29 07:15:07;;;;;;;;;;;;;;;;;;5063980;28;19999;-86
2021/07/29 07:17:33;;;;;;;;;;;;;;;;;;5056727;28;20339;-86
2021/07/29 07:20:00;;;;;;;;;;;;;;;;;;5063392;28;19919;-86
2021/07/29 07:22:26;;;;;;;;;;;;;;;;;;5063642;28;19908;-86
2021/07/29 07:24:52;;;;;;;;;;;;;;;;;;5057047;28;20381;-86
2021/07/29 07:27:18;;;;;;;;;;;;;;;;;;5059968;28;19982;-86
2021/07/29 07:29:44;;;;;;;;;;;;;;;;;;5057207;28;19916;-87
2021/07/29 07:32:09;;;;;;;;;;;;;;;;;;5060927;28;19913;-87
2021/07/29 07:34:35;;;;;;;;;;;;;;;;;;5062186;28;19917;-89
2021/07/29 07:37:01;;;;;;;;;;;;;;;;;;5064169;28;19981;-87
2021/07/29 07:39:27;;;;;;;;;;;;;;;;;;5060382;28;19966;-88
2021/07/29 07:41:55;;;;;;;;;;;;;;;;;;5062747;28;19919;-86
2021/07/29 07:44:21;;;;;;;;;;;;;;;;;;5059622;28;19913;-88
2021/07/29 07:46:47;;;;;;;;;;;;;;;;;;5061634;28;19939;-88
2021/07/29 07:49:13;;;;;;;;;;;;;;;;;;5061177;28;19909;-85
2021/07/29 07:51:40;;;;;;;;;;;;;;;;;;5060649;28;20318;-86
2021/07/29 07:54:07;;;;;;;;;;;;;;;;;;5061443;28;19913;-86
2021/07/29 07:56:33;;;;;;;;;;;;;;;;;;5061247;28;19923;-86
2021/07/29 07:58:59;;;;;;;;;;;;;;;;;;5056538;28;20277;-86
2021/07/29 08:01:24;;;;;;;;;;;;;;;;;;5056618;28;19920;-86
2021/07/29 08:03:50;;;;;;;;;;;;;;;;;;5059979;28;19909;-86
2021/07/29 08:06:16;;;;;;;;;;;;;;;;;;5063237;28;19984;-86
2021/07/29 08:08:42;;;;;;;;;;;;;;;;;;5056224;28;19913;-86
2021/07/29 08:11:08;;;;;;;;;;;;;;;;;;5044590;28;19913;-86
2021/07/29 08:13:34;;;;;;;;;;;;;;;;;;5058346;28;19980;-85
2021/07/29 08:16:00;;;;;;;;;;;;;;;;;;5055681;28;19909;-88
2021/07/29 08:18:27;;;;;;;;;;;;;;;;;;5059643;28;19913;-87
2021/07/29 08:20:53;;;;;;;;;;;;;;;;;;5054852;28;19912;-88
2021/07/29 08:23:19;;;;;;;;;;;;;;;;;;5062923;28;19920;-89
2021/07/29 08:25:45;;;;;;;;;;;;;;;;;;5054669;28;19921;-87
2021/07/29 08:28:11;;;;;;;;;;;;;;;;;;5059544;28;20029;-87
2021/07/29 08:30:37;;;;;;;;;;;;;;;;;;5058417;28;19975;-85
2021/07/29 08:33:03;;;;;;;;;;;;;;;;;;5056838;28;20365;-87
2021/07/29 08:35:29;;;;;;;;;;;;;;;;;;5047506;28;19913;-86
2021/07/29 08:37:55;;;;;;;;;;;;;;;;;;5063766;28;19952;-88
2021/07/29 08:40:21;;;;;;;;;;;;;;;;;;5060959;28;19938;-84
2021/07/29 08:42:47;;;;;;;;;;;;;;;;;;5059534;28;19975;-86
2021/07/29 08:45:13;;;;;;;;;;;;;;;;;;5061527;28;19925;-87
2021/07/29 08:47:39;;;;;;;;;;;;;;;;;;5057706;28;20015;-86
2021/07/29 08:50:04;;;;;;;;;;;;;;;;;;5053984;28;19917;-87
2021/07/29 08:52:30;;;;;;;;;;;;;;;;;;5063633;28;19909;-88
2021/07/29 08:54:56;;;;;;;;;;;;;;;;;;5072024;28;20057;-87
2021/07/29 08:57:22;;;;;;;;;;;;;;;;;;5062136;28;19921;-89
2021/07/29 08:59:48;;;;;;;;;;;;;;;;;;5065874;28;20278;-87
2021/07/29 09:02:14;;;;;;;;;;;;;;;;;;5061379;28;19909;-89
2021/07/29 09:04:40;;;;;;;;;;;;;;;;;;5058475;28;20417;-88
2021/07/29 09:07:06;;;;;;;;;;;;;;;;;;5061805;28;19916;-88
2021/07/29 09:09:31;;;;;;;;;;;;;;;;;;5062800;28;19913;-87
2021/07/29 09:11:57;;;;;;;;;;;;;;;;;;5075151;28;19927;-89
2021/07/29 09:14:23;;;;;;;;;;;;;;;;;;5058115;28;19912;-88
2021/07/29 09:16:49;;;;;;;;;;;;;;;;;;5060594;28;19919;-88
2021/07/29 09:19:15;;;;;;;;;;;;;;;;;;5062506;28;19999;-87
2021/07/29 09:21:41;;;;;;;;;;;;;;;;;;5053535;28;19913;-88
2021/07/29 09:24:07;;;;;;;;;;;;;;;;;;5051497;28;19913;-88
2021/07/29 09:26:33;;;;;;;;;;;;;;;;;;5060352;28;19931;-88
2021/07/29 09:28:59;;;;;;;;;;;;;;;;;;5070376;28;19909;-88
2021/07/29 09:31:25;;;;;;;;;;;;;;;;;;5056150;28;19913;-88
2021/07/29 09:33:50;;;;;;;;;;;;;;;;;;5061314;28;20357;-88
2021/07/29 09:36:16;;;;;;;;;;;;;;;;;;5053025;28;19925;-88
2021/07/29 09:38:42;;;;;;;;;;;;;;;;;;5050572;28;20459;-88
2021/07/29 09:41:09;;;;;;;;;;;;;;;;;;5058519;28;19952;-88
2021/07/29 09:43:35;;;;;;;;;;;;;;;;;;5060099;28;19908;-87
2021/07/29 09:46:01;;;;;;;;;;;;;;;;;;5064860;28;20285;-88
2021/07/29 09:48:27;;;;;;;;;;;;;;;;;;5062845;28;19917;-88
2021/07/29 09:50:55;;;;;;;;;;;;;;;;;;5078028;28;20380;-88
2021/07/29 09:53:22;;;;;;;;;;;;;;;;;;5058944;28;19913;-88
2021/07/29 09:55:48;;;;;;;;;;;;;;;;;;5062109;28;19927;-88
2021/07/29 09:58:14;;;;;;;;;;;;;;;;;;5070944;28;20338;-88
2021/07/29 10:00:40;;;;;;;;;;;;;;;;;;5067553;28;19913;-88
2021/07/29 10:03:06;;;;;;;;;;;;;;;;;;5062816;28;20390;-88
2021/07/29 10:05:32;;;;;;;;;;;;;;;;;;5064887;28;19972;-88
2021/07/29 10:07:58;;;;;;;;;;;;;;;;;;5064401;28;19972;-88
2021/07/29 10:10:25;;;;;;;;;;;;;;;;;;5068334;28;19966;-88
2021/07/29 10:12:51;;;;;;;;;;;;;;;;;;5070711;28;19908;-88
2021/07/29 10:15:17;;;;;;;;;;;;;;;;;;5067278;28;19931;-88
2021/07/29 10:17:46;;;;;;;;;;;;;;;;;;5061721;28;19909;-88
2021/07/29 10:20:15;;;;;;;;;;;;;;;;;;5064317;28;21312;-88
2021/07/29 10:22:41;;;;;;;;;;;;;;;;;;5060888;28;19917;-88
2021/07/29 10:25:07;;;;;;;;;;;;;;;;;;5057544;28;19909;-88
2021/07/29 10:27:33;;;;;;;;;;;;;;;;;;5064787;28;19912;-87
2021/07/29 10:29:59;;;;;;;;;;;;;;;;;;5050068;28;20357;-87
2021/07/29 10:32:25;;;;;;;;;;;;;;;;;;5075693;28;19924;-88
2021/07/29 10:34:52;;;;;;;;;;;;;;;;;;5064352;28;19985;-87
2021/07/29 10:37:18;;;;;;;;;;;;;;;;;;5060147;28;19913;-88
2021/07/29 10:39:44;;;;;;;;;;;;;;;;;;5078133;28;19920;-88
2021/07/29 10:42:10;;;;;;;;;;;;;;;;;;5061803;28;19921;-88
2021/07/29 10:44:36;;;;;;;;;;;;;;;;;;5060912;28;19909;-88
2021/07/29 10:47:02;;;;;;;;;;;;;;;;;;5063514;28;19909;-88
2021/07/29 10:49:28;;;;;;;;;;;;;;;;;;5062011;28;19913;-87
2021/07/29 10:51:54;;;;;;;;;;;;;;;;;;5074006;28;19935;-88
2021/07/29 10:54:20;;;;;;;;;;;;;;;;;;5060860;28;19948;-88
2021/07/29 10:56:45;;;;;;;;;;;;;;;;;;5053438;28;20374;-88
2021/07/29 10:59:11;;;;;;;;;;;;;;;;;;5054987;28;19913;-88
2021/07/29 11:01:37;;;;;;;;;;;;;;;;;;5059743;28;19918;-87
2021/07/29 11:04:04;;;;;;;;;;;;;;;;;;5061096;28;20011;-88
2021/07/29 11:06:37;;;;;;;;;;;;;;;;;;5060654;28;20360;-88
2021/07/29 11:09:03;;;;;;;;;;;;;;;;;;5056421;28;19913;-89
2021/07/29 11:11:29;;;;;;;;;;;;;;;;;;5057191;28;20373;-89
2021/07/29 11:13:55;;;;;;;;;;;;;;;;;;5063706;28;19935;-88
2021/07/29 11:16:21;;;;;;;;;;;;;;;;;;5058263;28;19924;-89
2021/07/29 11:18:47;;;;;;;;;;;;;;;;;;5072264;28;19977;-88
2021/07/29 11:21:13;;;;;;;;;;;;;;;;;;5064689;28;19912;-88
2021/07/29 11:23:39;;;;;;;;;;;;;;;;;;5061351;28;19920;-87
2021/07/29 11:26:05;;;;;;;;;;;;;;;;;;5056926;28;19917;-87
2021/07/29 11:28:31;;;;;;;;;;;;;;;;;;5053565;28;20386;-87
2021/07/29 11:30:57;;;;;;;;;;;;;;;;;;5060216;28;19909;-87
2021/07/29 11:33:23;;;;;;;;;;;;;;;;;;5051332;28;20428;-86
2021/07/29 11:35:49;;;;;;;;;;;;;;;;;;5059247;28;19967;-87
2021/07/29 11:38:14;;;;;;;;;;;;;;;;;;5054221;28;19959;-88
2021/07/29 11:40:40;;;;;;;;;;;;;;;;;;5052527;28;20357;-87
2021/07/29 11:43:06;;;;;;;;;;;;;;;;;;5061825;28;19909;-87
2021/07/29 11:45:32;;;;;;;;;;;;;;;;;;5058845;28;19952;-87
2021/07/29 11:47:58;;;;;;;;;;;;;;;;;;5072571;28;19909;-87
2021/07/29 11:50:24;;;;;;;;;;;;;;;;;;5065765;28;19924;-87
2021/07/29 11:52:51;;;;;;;;;;;;;;;;;;5058756;28;20369;-86
2021/07/29 11:55:16;;;;;;;;;;;;;;;;;;5057449;28;19970;-87
2021/07/29 11:57:42;;;;;;;;;;;;;;;;;;5060003;28;19921;-87
2021/07/29 12:00:08;;;;;;;;;;;;;;;;;;5065790;28;19919;-87
2021/07/29 12:02:34;;;;;;;;;;;;;;;;;;5072172;28;19921;-87
2021/07/29 12:05:00;;;;;;;;;;;;;;;;;;5063106;28;19920;-87
2021/07/29 12:07:26;;;;;;;;;;;;;;;;;;5063151;28;19909;-87
2021/07/29 12:09:52;;;;;;;;;;;;;;;;;;5055896;28;20022;-87
2021/07/29 12:12:18;;;;;;;;;;;;;;;;;;5052672;28;19923;-87
2021/07/29 12:14:44;;;;;;;;;;;;;;;;;;5059120;28;20335;-87
2021/07/29 12:17:10;;;;;;;;;;;;;;;;;;5062417;28;19909;-86
2021/07/29 12:19:36;;;;;;;;;;;;;;;;;;5060191;28;19970;-88
2021/07/29 12:22:02;;;;;;;;;;;;;;;;;;5047347;28;19913;-87
2021/07/29 12:24:28;;;;;;;;;;;;;;;;;;5060348;28;19920;-87
2021/07/29 12:26:54;;;;;;;;;;;;;;;;;;5057723;28;19917;-87
2021/07/29 12:29:20;;;;;;;;;;;;;;;;;;5062378;28;20345;-86
2021/07/29 12:31:46;;;;;;;;;;;;;;;;;;5070284;28;19966;-88
2021/07/29 12:34:12;;;;;;;;;;;;;;;;;;5071810;28;19909;-87
2021/07/29 12:36:37;;;;;;;;;;;;;;;;;;5059153;28;19925;-88
2021/07/29 12:39:03;;;;;;;;;;;;;;;;;;5056721;28;19924;-86
2021/07/29 12:41:29;;;;;;;;;;;;;;;;;;5064384;28;19916;-87
2021/07/29 12:43:55;;;;;;;;;;;;;;;;;;5062608;28;19913;-87
2021/07/29 12:46:21;;;;;;;;;;;;;;;;;;5062410;28;19915;-87
2021/07/29 12:48:47;;;;;;;;;;;;;;;;;;5062307;28;19963;-86
2021/07/29 12:51:13;;;;;;;;;;;;;;;;;;5071122;28;19912;-87
2021/07/29 12:53:39;;;;;;;;;;;;;;;;;;5073618;28;19913;-86
2021/07/29 12:56:05;;;;;;;;;;;;;;;;;;5060956;28;20300;-87
2021/07/29 12:58:30;;;;;;;;;;;;;;;;;;5053195;28;20009;-86
2021/07/29 13:00:56;;;;;;;;;;;;;;;;;;5065722;28;19963;-86
2021/07/29 13:03:34;;;;;;;;;;;;;;;;;;5058791;28;19915;-87
2021/07/29 13:06:00;;;;;;;;;;;;;;;;;;5059882;28;19916;-86
2021/07/29 13:08:27;;;;;;;;;;;;;;;;;;5050732;28;19909;-86
2021/07/29 13:10:53;;;;;;;;;;;;;;;;;;5063755;28;19913;-86
2021/07/29 13:13:24;;;;;;;;;;;;;;;;;;5061670;28;19956;-86
2021/07/29 13:15:50;;;;;;;;;;;;;;;;;;5060090;28;20007;-86
2021/07/29 13:18:15;;;;;;;;;;;;;;;;;;5065832;28;19913;-86
2021/07/29 13:20:41;;;;;;;;;;;;;;;;;;5075806;28;19920;-86
2021/07/29 13:23:07;;;;;;;;;;;;;;;;;;5071353;28;19943;-86
2021/07/29 13:25:33;;;;;;;;;;;;;;;;;;5059244;28;19952;-86
2021/07/29 13:27:59;;;;;;;;;;;;;;;;;;5059247;28;20405;-87
2021/07/29 13:30:25;;;;;;;;;;;;;;;;;;5058238;28;19939;-89
2021/07/29 13:32:51;;;;;;;;;;;;;;;;;;5066051;28;19920;-87
2021/07/29 13:35:17;;;;;;;;;;;;;;;;;;5061878;28;19913;-86
2021/07/29 13:37:42;;;;;;;;;;;;;;;;;;5061204;28;19919;-87
2021/07/29 13:40:08;;;;;;;;;;;;;;;;;;5076448;28;19908;-87
2021/07/29 13:42:34;;;;;;;;;;;;;;;;;;5060651;28;19913;-87
2021/07/29 13:45:16;;;;;;;;;;;;;;;;;;5057658;28;19913;-86
2021/07/29 13:47:42;;;;;;;;;;;;;;;;;;5054560;28;19916;-87
2021/07/29 13:50:08;;;;;;;;;;;;;;;;;;5036310;28;19913;-87
2021/07/29 13:52:34;;;;;;;;;;;;;;;;;;5047740;28;20423;-87
2021/07/29 13:54:59;;;;;;;;;;;;;;;;;;5057128;28;20065;-87
2021/07/29 13:57:25;;;;;;;;;;;;;;;;;;5063991;28;19920;-86
2021/07/29 13:59:51;;;;;;;;;;;;;;;;;;5072949;28;19931;-86
2021/07/29 14:02:17;;;;;;;;;;;;;;;;;;5066381;28;19917;-87
2021/07/29 14:04:43;;;;;;;;;;;;;;;;;;5064823;28;20347;-88
2021/07/29 14:07:09;;;;;;;;;;;;;;;;;;5066304;28;20384;-89
2021/07/29 14:09:35;;;;;;;;;;;;;;;;;;5060149;28;19913;-88
2021/07/29 14:12:01;;;;;;;;;;;;;;;;;;5055524;28;19924;-91
2021/07/29 14:14:27;;;;;;;;;;;;;;;;;;5059335;28;19948;-89
2021/07/29 14:16:53;;;;;;;;;;;;;;;;;;5057398;28;19916;-91
2021/07/29 14:19:25;;;;;;;;;;;;;;;;;;5066420;28;19931;-90
2021/07/29 14:24:26;;;;;;;;;;;;;;;;;;5067270;28;19913;-89
2021/07/29 14:26:52;;;;;;;;;;;;;;;;;;5064865;28;19909;-89
2021/07/29 14:29:17;;;;;;;;;;;;;;;;;;5055010;28;19920;-89
2021/07/29 14:31:43;;;;;;;;;;;;;;;;;;5076800;28;20010;-90
2021/07/29 14:34:09;;;;;;;;;;;;;;;;;;5055046;28;19919;-92
2021/07/29 14:36:35;;;;;;;;;;;;;;;;;;5069745;28;19928;-93
2021/07/29 14:39:01;;;;;;;;;;;;;;;;;;5064931;28;19972;-89
2021/07/29 14:41:27;;;;;;;;;;;;;;;;;;5047724;28;19917;-90
2021/07/29 14:43:53;;;;;;;;;;;;;;;;;;5061207;28;20330;-91
2021/07/29 14:49:16;;;;;;;;;;;;;;;;;;5062475;28;20291;-90
2021/07/29 14:51:43;;;;;;;;;;;;;;;;;;5049879;28;19953;-92
2021/07/29 14:54:10;;;;;;;;;;;;;;;;;;5060758;28;19912;-91
2021/07/29 14:56:44;;;;;;;;;;;;;;;;;;5055478;28;20432;-89
2021/07/29 16:07:41;;;;;;;;;;;;;;;;;;5055166;28;19974;-90
2021/07/29 16:10:07;;;;;;;;;;;;;;;;;;5073538;28;20322;-91
2021/07/29 16:12:33;;;;;;;;;;;;;;;;;;5054411;28;19963;-90
2021/07/29 16:14:59;;;;;;;;;;;;;;;;;;5070016;28;19920;-89
2021/07/29 16:17:24;;;;;;;;;;;;;;;;;;5069458;28;20280;-90
2021/07/29 16:19:50;;;;;;;;;;;;;;;;;;5063264;28;19920;-90
2021/07/29 16:22:16;;;;;;;;;;;;;;;;;;5056620;28;19932;-90
2021/07/29 16:24:42;;;;;;;;;;;;;;;;;;5060472;28;19909;-90
2021/07/29 16:27:10;;;;;;;;;;;;;;;;;;5061182;28;19972;-90
2021/07/29 16:29:41;;;;;;;;;;;;;;;;;;5059644;28;19920;-90
2021/07/29 16:32:07;;;;;;;;;;;;;;;;;;5066594;28;19995;-90
2021/07/29 16:34:34;;;;;;;;;;;;;;;;;;5060722;28;19940;-90
2021/07/29 16:37:00;;;;;;;;;;;;;;;;;;5055315;28;19999;-91
2021/07/29 16:39:26;;;;;;;;;;;;;;;;;;5048452;28;19971;-90
2021/07/29 16:41:52;;;;;;;;;;;;;;;;;;5063767;28;19942;-91
2021/07/29 16:44:18;;;;;;;;;;;;;;;;;;5061033;28;19920;-89
2021/07/29 16:46:44;;;;;;;;;;;;;;;;;;5056361;28;20499;-89
2021/07/29 16:49:10;;;;;;;;;;;;;;;;;;5038845;28;19910;-89
2021/07/29 16:51:37;;;;;;;;;;;;;;;;;;5049279;28;19913;-89
2021/07/29 16:54:03;;;;;;;;;;;;;;;;;;5053606;28;19919;-89
2021/07/29 16:56:29;;;;;;;;;;;;;;;;;;5061454;28;19929;-88
2021/07/29 16:58:55;;;;;;;;;;;;;;;;;;5065207;28;19932;-89
2021/07/29 17:01:20;;;;;;;;;;;;;;;;;;5079933;28;19915;-89
2021/07/29 17:03:46;;;;;;;;;;;;;;;;;;5061808;28;19908;-89
2021/07/29 17:06:12;;;;;;;;;;;;;;;;;;5055059;28;19916;-89
2021/07/29 17:08:38;;;;;;;;;;;;;;;;;;5059295;28;20384;-89
2021/07/29 17:11:04;;;;;;;;;;;;;;;;;;5046522;28;19921;-89
2021/07/29 17:13:30;;;;;;;;;;;;;;;;;;5049043;28;19949;-88
2021/07/29 17:15:56;;;;;;;;;;;;;;;;;;5063162;28;19972;-88
2021/07/29 17:18:22;;;;;;;;;;;;;;;;;;5063481;28;20007;-89
2021/07/29 17:20:48;;;;;;;;;;;;;;;;;;5059679;28;19917;-89
2021/07/29 17:23:13;;;;;;;;;;;;;;;;;;5052532;28;19913;-89
2021/07/29 17:25:39;;;;;;;;;;;;;;;;;;5055879;28;19909;-88
2021/07/29 17:28:05;;;;;;;;;;;;;;;;;;5066893;28;19912;-89
2021/07/29 17:30:31;;;;;;;;;;;;;;;;;;5046006;28;20377;-90
2021/07/29 17:32:57;;;;;;;;;;;;;;;;;;5048388;28;19917;-89
2021/07/29 17:35:23;;;;;;;;;;;;;;;;;;5050875;28;19931;-88
2021/07/29 17:37:49;;;;;;;;;;;;;;;;;;5060968;28;20341;-88
2021/07/29 17:40:15;;;;;;;;;;;;;;;;;;5051417;28;20378;-88
2021/07/29 17:42:41;;;;;;;;;;;;;;;;;;5051769;28;19913;-89
2021/07/29 17:45:06;;;;;;;;;;;;;;;;;;5060528;28;20347;-89
2021/07/29 17:47:32;;;;;;;;;;;;;;;;;;5068824;28;19955;-89
2021/07/29 17:49:58;;;;;;;;;;;;;;;;;;5064371;28;19913;-87
2021/07/29 17:52:24;;;;;;;;;;;;;;;;;;5056727;28;19962;-88
2021/07/29 17:54:50;;;;;;;;;;;;;;;;;;5064032;28;19921;-88